Time;durP1;ratioP1;P1;durP2;ratioP2;P2;SDS_P1;SDS_P2;PMS_P1;PMS_P2;Temp;Humidity;BMP_temperature;BMP_pressure;BME280_temperature;BME280_humidity;BME280_pressure;Samples;Min_cycle;Max_cycle;Signal;HPM_P1;HPM_P2
2022/07/13 00:01:04;;;;;;;1.50;1.30;;;22.60;61.80;;;-142.21;87.22;112049.66;5113936;28;20224;-76
2022/07/13 00:03:31;;;;;;;1.30;1.20;;;22.60;61.80;;;-142.21;87.48;112049.66;5112056;28;20262;-77
2022/07/13 00:05:58;;;;;;;3.27;1.37;;;22.60;61.80;;;-142.21;87.54;112049.66;5089489;28;20227;-78
2022/07/13 00:08:25;;;;;;;2.43;1.40;;;22.50;61.80;;;-142.21;87.81;112049.66;5114178;28;20224;-76
2022/07/13 00:10:52;;;;;;;1.50;1.40;;;22.50;62.10;;;-142.21;87.84;112049.66;5094313;28;20595;-77
2022/07/13 00:13:20;;;;;;;1.30;1.20;;;22.40;62.20;;;-142.21;88.58;112049.66;5112503;28;20714;-76
2022/07/13 00:15:48;;;;;;;1.53;1.23;;;22.30;62.50;;;-142.21;88.96;112049.66;5109448;28;20291;-77
2022/07/13 00:18:16;;;;;;;1.90;1.30;;;22.30;62.80;;;-142.21;89.47;112049.66;5115297;28;20233;-76
2022/07/13 00:20:44;;;;;;;2.53;1.50;;;22.20;63.00;;;-142.21;89.75;112049.66;5113176;28;20663;-76
2022/07/13 00:23:11;;;;;;;1.10;1.00;;;22.20;63.10;;;-142.21;89.74;112049.66;5112444;28;20224;-76
2022/07/13 00:25:38;;;;;;;2.07;1.20;;;22.10;63.10;;;-142.21;89.45;112049.66;5109177;28;20310;-76
2022/07/13 00:28:05;;;;;;;1.73;1.20;;;22.10;62.60;;;-142.21;89.32;112049.66;5110486;28;20226;-77
2022/07/13 00:30:33;;;;;;;3.10;1.37;;;22.10;62.60;;;-142.21;89.42;112049.66;5112523;28;20231;-76
2022/07/13 00:33:01;;;;;;;3.37;1.47;;;22.00;62.60;;;-142.21;88.60;112049.66;5112337;28;20295;-76
2022/07/13 00:35:28;;;;;;;2.87;1.30;;;22.00;62.60;;;-142.21;88.16;112049.66;5113814;28;20310;-77
2022/07/13 00:37:55;;;;;;;2.57;1.40;;;22.00;62.40;;;-142.21;87.16;112049.66;5113861;28;20227;-77
2022/07/13 00:40:24;;;;;;;1.33;1.03;;;22.00;62.10;;;-142.21;88.08;112049.66;5110486;28;20553;-77
2022/07/13 00:42:52;;;;;;;1.40;1.30;;;22.00;62.40;;;-142.21;86.96;112049.66;5112680;28;20220;-75
2022/07/13 00:45:20;;;;;;;2.10;1.47;;;22.10;62.00;;;-142.21;87.07;112049.66;5113118;28;20224;-75
2022/07/13 00:47:50;;;;;;;1.47;1.37;;;22.10;61.70;;;-142.21;86.00;112049.66;5114256;28;20203;-75
2022/07/13 00:50:18;;;;;;;1.33;1.23;;;22.20;62.30;;;-142.21;85.59;112049.66;5112648;28;20197;-76
2022/07/13 00:52:48;;;;;;;1.50;1.20;;;22.20;61.20;;;-142.21;84.77;112049.66;5114117;28;20286;-77
2022/07/13 00:55:18;;;;;;;1.30;1.20;;;22.20;60.80;;;-142.21;84.75;112049.66;5113180;28;20200;-76
2022/07/13 00:57:45;;;;;;;2.13;1.23;;;22.20;60.50;;;-142.21;84.68;112049.66;5095846;28;20727;-77
2022/07/13 01:00:15;;;;;;;2.50;1.40;;;22.30;60.60;;;-142.21;85.26;112049.66;5113913;28;20554;-78
2022/07/13 01:02:45;;;;;;;1.50;1.40;;;22.30;61.00;;;-142.21;84.82;112049.66;5113713;28;20287;-78
2022/07/13 01:05:14;;;;;;;1.47;1.10;;;22.30;60.70;;;-142.21;84.50;112049.66;5113251;28;20682;-79
2022/07/13 01:07:45;;;;;;;1.63;1.40;;;22.40;60.70;;;-142.21;84.02;112049.66;5113518;28;20335;-78
2022/07/13 01:10:13;;;;;;;1.77;1.10;;;22.50;60.60;;;-142.21;83.03;112049.66;5103536;28;20235;-79
2022/07/13 01:12:41;;;;;;;1.23;1.00;;;22.50;60.00;;;-142.21;83.40;112049.66;5112323;28;20220;-77
2022/07/13 01:15:10;;;;;;;3.43;1.27;;;22.50;59.90;;;-142.21;83.49;112049.66;5094165;28;20310;-78
2022/07/13 01:17:39;;;;;;;1.40;1.17;;;22.50;60.00;;;-142.21;84.18;112049.66;5110290;28;20224;-76
2022/07/13 01:20:09;;;;;;;1.50;1.40;;;22.50;60.20;;;-142.21;85.03;112049.66;5109240;28;20208;-77
2022/07/13 01:22:44;;;;;;;1.20;1.10;;;22.50;60.40;;;-142.21;85.83;112049.66;5113833;28;20247;-77
2022/07/13 01:25:15;;;;;;;1.60;1.50;;;22.50;60.80;;;-142.21;86.13;112049.66;5112391;28;20632;-77
2022/07/13 01:27:45;;;;;;;1.03;1.00;;;22.40;61.00;;;-142.21;86.10;112049.66;5094482;28;20223;-77
2022/07/13 01:30:12;;;;;;;1.40;1.30;;;22.40;61.10;;;-142.21;85.84;112049.66;5111921;28;20306;-76
2022/07/13 01:32:48;;;;;;;1.13;1.10;;;22.40;61.00;;;-142.21;86.19;112049.66;5112156;28;20227;-77
2022/07/13 01:35:17;;;;;;;1.43;1.33;;;22.30;61.10;;;-142.21;86.62;112049.66;5110695;28;20302;-76
2022/07/13 01:37:45;;;;;;;1.30;1.20;;;22.30;61.20;;;-142.21;86.36;112049.66;5092483;28;20314;-76
2022/07/13 01:40:15;;;;;;;2.23;1.10;;;22.30;61.10;;;-142.21;85.98;112049.66;5112306;28;20283;-75
2022/07/13 01:42:44;;;;;;;1.13;1.13;;;22.30;61.00;;;-142.21;84.97;112049.66;5108529;28;20220;-77
2022/07/13 01:45:13;;;;;;;3.23;1.17;;;22.30;60.60;;;-142.21;85.07;112049.66;5111524;28;20231;-76
2022/07/13 01:47:41;;;;;;;2.33;1.10;;;22.30;60.70;;;-142.21;84.94;112049.66;5111305;28;20741;-76
2022/07/13 01:50:11;;;;;;;1.10;1.00;;;22.30;60.60;;;-142.21;85.41;112049.66;5058701;28;20310;-76
2022/07/13 01:52:39;;;;;;;1.30;1.20;;;22.30;60.80;;;-142.21;85.71;112049.66;5092943;28;20226;-77
2022/07/13 01:55:09;;;;;;;1.37;1.27;;;22.30;60.90;;;-142.21;85.89;112049.66;5111684;28;20348;-77
2022/07/13 01:57:38;;;;;;;1.30;1.20;;;22.20;60.80;;;-142.21;86.34;112049.66;5111263;28;20286;-77
2022/07/13 02:00:09;;;;;;;1.20;1.10;;;22.20;61.00;;;-142.21;86.69;112049.66;5113089;28;20561;-77
2022/07/13 02:02:37;;;;;;;1.17;1.10;;;22.20;61.30;;;-142.21;86.45;112049.66;5105855;28;20581;-77
2022/07/13 02:05:05;;;;;;;2.33;1.47;;;22.20;61.20;;;-142.21;86.26;112049.66;5093390;28;20684;-77
2022/07/13 02:07:32;;;;;;;1.63;1.00;;;22.20;61.20;;;-142.21;86.33;112049.66;5108535;28;20291;-77
2022/07/13 02:09:59;;;;;;;1.20;1.10;;;22.20;61.40;;;-142.21;86.50;112049.66;5113154;28;20579;-78
2022/07/13 02:12:33;;;;;;;1.30;1.20;;;22.20;61.60;;;-142.21;86.79;112049.66;5112952;28;20206;-76
2022/07/13 02:15:02;;;;;;;1.50;1.40;;;22.20;61.70;;;-142.21;86.81;112049.66;5095259;28;20225;-76
2022/07/13 02:17:29;;;;;;;1.27;1.13;;;22.10;61.50;;;-142.21;86.70;112049.66;5090109;28;20204;-76
2022/07/13 02:19:56;;;;;;;1.93;1.20;;;22.10;61.40;;;-142.21;86.71;112049.66;5052605;28;20231;-76
2022/07/13 02:22:23;;;;;;;1.37;1.17;;;22.10;61.60;;;-142.21;87.00;112049.66;5107646;28;20208;-76
2022/07/13 02:24:50;;;;;;;1.43;1.33;;;22.10;61.70;;;-142.21;87.14;112049.66;5093029;28;20230;-77
2022/07/13 02:27:18;;;;;;;1.57;1.00;;;22.00;61.80;;;-142.21;87.56;112049.66;5111487;28;20318;-77
2022/07/13 02:29:45;;;;;;;1.30;1.20;;;22.00;62.00;;;-142.21;88.10;112049.66;5111083;28;20278;-77
2022/07/13 02:32:13;;;;;;;1.40;1.30;;;22.00;62.20;;;-142.21;88.20;112049.66;5108341;28;20224;-77
2022/07/13 02:34:41;;;;;;;1.43;1.33;;;21.90;63.10;;;-142.21;87.78;112049.66;5111026;28;20717;-79
2022/07/13 02:37:11;;;;;;;2.67;1.30;;;21.90;62.10;;;-142.21;87.71;112049.66;5111254;28;20216;-78
2022/07/13 02:39:38;;;;;;;2.20;1.40;;;21.90;62.10;;;-142.21;88.47;112049.66;5105944;28;20207;-76
2022/07/13 02:42:06;;;;;;;1.50;1.23;;;21.90;62.40;;;-142.21;89.11;112049.66;5110104;28;20232;-75
2022/07/13 02:44:33;;;;;;;1.50;1.40;;;21.80;62.70;;;-142.21;89.62;112049.66;5106128;28;20236;-77
2022/07/13 02:47:00;;;;;;;1.97;1.60;;;21.80;62.80;;;-142.21;89.29;112049.66;5109721;28;20258;-75
2022/07/13 02:49:28;;;;;;;1.40;1.30;;;21.70;62.70;;;-142.21;89.28;112049.66;5100608;28;20552;-74
2022/07/13 02:51:55;;;;;;;1.60;1.50;;;21.70;62.90;;;-142.21;89.61;112049.66;5110701;28;20220;-76
2022/07/13 02:54:22;;;;;;;1.70;1.60;;;21.70;63.00;;;-142.21;89.96;112049.66;5110207;28;20259;-75
2022/07/13 02:56:50;;;;;;;1.90;1.57;;;21.60;63.10;;;-142.21;89.70;112049.66;5110359;28;20582;-76
2022/07/13 02:59:17;;;;;;;1.50;1.20;;;21.60;63.10;;;-142.21;89.95;112049.66;5092706;28;20224;-76
2022/07/13 03:01:44;;;;;;;1.57;1.30;;;21.60;63.40;;;-142.21;90.04;112049.66;5110576;28;20235;-76
2022/07/13 03:04:12;;;;;;;1.73;1.30;;;21.50;64.10;;;-142.21;90.00;112049.66;5111218;28;20349;-77
2022/07/13 03:06:40;;;;;;;1.23;1.13;;;21.50;63.30;;;-142.21;90.09;112049.66;5092184;28;20232;-77
2022/07/13 03:09:07;;;;;;;1.20;1.10;;;21.40;63.60;;;-142.21;90.66;112049.66;5108067;28;20579;-76
2022/07/13 03:11:35;;;;;;;1.47;1.20;;;21.40;63.60;;;-142.21;90.89;112049.66;5111446;28;20576;-77
2022/07/13 03:14:02;;;;;;;1.37;1.27;;;21.40;63.70;;;-142.21;91.24;112049.66;5093574;28;20257;-76
2022/07/13 03:16:29;;;;;;;2.90;1.50;;;21.40;64.10;;;-142.21;91.41;112049.66;5112992;28;20203;-75
2022/07/13 03:18:56;;;;;;;1.83;1.50;;;21.30;64.00;;;-142.21;91.84;112049.66;5092398;28;20204;-76
2022/07/13 03:21:24;;;;;;;1.93;1.60;;;21.30;64.00;;;-142.21;91.51;112049.66;5112698;28;20743;-78
2022/07/13 03:23:52;;;;;;;1.97;1.57;;;21.30;64.10;;;-142.21;91.68;112049.66;5110392;28;20644;-75
2022/07/13 03:26:19;;;;;;;1.43;1.33;;;21.20;64.10;;;-142.21;91.46;112049.66;5111502;28;20219;-76
2022/07/13 03:28:46;;;;;;;1.47;1.27;;;21.20;64.10;;;-142.21;91.55;112049.66;5111020;28;20227;-76
2022/07/13 03:31:13;;;;;;;2.20;1.37;;;21.10;64.90;;;-142.21;91.59;112049.66;5111131;28;20203;-76
2022/07/13 03:33:41;;;;;;;2.30;1.47;;;21.00;64.20;;;-142.21;91.81;112049.66;5110570;28;20211;-76
2022/07/13 03:36:09;;;;;;;1.20;1.10;;;21.00;64.20;;;-142.21;91.76;112049.66;5112328;28;20549;-75
2022/07/13 03:38:37;;;;;;;1.57;1.40;;;20.90;64.20;;;-142.21;91.70;112049.66;5110180;28;20214;-76
2022/07/13 03:41:06;;;;;;;1.57;1.10;;;20.90;64.20;;;-142.21;91.45;112049.66;5111381;28;20723;-78
2022/07/13 03:43:33;;;;;;;1.33;1.23;;;20.80;64.10;;;-142.21;91.96;112049.66;5111908;28;20212;-78
2022/07/13 03:46:01;;;;;;;1.60;1.30;;;20.80;64.20;;;-142.21;91.55;112049.66;5110141;28;20727;-79
2022/07/13 03:48:28;;;;;;;1.17;1.13;;;20.80;64.30;;;-142.21;91.61;112049.66;5111642;28;20195;-77
2022/07/13 03:50:55;;;;;;;0.97;0.97;;;20.80;64.20;;;-142.21;91.67;112049.66;5092289;28;20303;-76
2022/07/13 03:53:23;;;;;;;1.40;1.30;;;20.80;64.40;;;-142.21;91.45;112049.66;5093010;28;20638;-77
2022/07/13 03:55:51;;;;;;;1.63;1.20;;;20.70;64.10;;;-142.21;91.14;112049.66;5110509;28;20682;-76
2022/07/13 03:58:19;;;;;;;1.67;1.23;;;20.70;63.90;;;-142.21;91.33;112049.66;5114256;28;20634;-76
2022/07/13 04:00:47;;;;;;;1.93;1.50;;;20.70;64.10;;;-142.21;91.33;112049.66;5114814;28;20222;-76
2022/07/13 04:03:14;;;;;;;1.30;1.20;;;20.70;64.20;;;-142.21;91.26;112049.66;5115247;28;20207;-76
2022/07/13 04:05:41;;;;;;;1.40;1.30;;;20.70;64.10;;;-142.21;91.73;112049.66;5114298;28;20257;-75
2022/07/13 04:08:08;;;;;;;1.23;1.13;;;20.70;64.10;;;-142.21;91.73;112049.66;5113466;28;20226;-75
2022/07/13 04:10:35;;;;;;;1.53;1.43;;;20.80;64.20;;;-142.21;91.45;112049.66;5115371;28;20228;-76
2022/07/13 04:13:03;;;;;;;2.07;1.43;;;20.80;64.20;;;-142.21;91.94;112049.66;5114747;28;20199;-77
2022/07/13 04:15:32;;;;;;;2.20;2.00;;;20.80;64.40;;;-142.21;92.65;112049.66;5115347;28;20291;-76
2022/07/13 04:17:59;;;;;;;2.33;1.60;;;20.80;64.90;;;-142.21;92.44;112049.66;5113770;28;20200;-77
2022/07/13 04:20:26;;;;;;;2.83;1.47;;;20.80;65.00;;;-142.21;92.80;112049.66;5114817;28;20546;-77
2022/07/13 04:22:54;;;;;;;1.53;1.43;;;20.80;65.10;;;-142.21;91.91;112049.66;5113550;28;20214;-77
2022/07/13 04:25:21;;;;;;;1.57;1.43;;;20.90;64.50;;;-142.21;92.90;112049.66;5094676;28;20656;-76
2022/07/13 04:27:48;;;;;;;1.63;1.53;;;20.90;65.30;;;-142.21;92.16;112049.66;5096329;28;20245;-77
2022/07/13 04:30:15;;;;;;;1.60;1.50;;;20.90;65.00;;;-142.21;91.54;112049.66;5115832;28;20542;-76
2022/07/13 04:32:43;;;;;;;2.87;1.47;;;20.90;64.80;;;-142.21;92.29;112049.66;5113675;28;20290;-77
2022/07/13 04:35:11;;;;;;;1.60;1.50;;;21.00;65.00;;;-142.21;92.85;112049.66;5078550;28;20554;-76
2022/07/13 04:37:38;;;;;;;4.53;2.33;;;21.10;65.50;;;-142.21;94.39;112049.66;5112441;28;20238;-77
2022/07/13 04:40:06;;;;;;;4.40;1.83;;;21.10;66.10;;;-142.21;94.03;112049.66;5113382;28;20204;-76
2022/07/13 04:42:34;;;;;;;3.73;2.23;;;21.10;66.70;;;-142.21;95.17;112049.66;5075453;28;20550;-77
2022/07/13 04:45:01;;;;;;;4.73;2.30;;;21.20;66.70;;;-142.21;94.12;112049.66;5113737;28;20624;-77
2022/07/13 04:47:28;;;;;;;3.87;2.07;;;21.20;66.30;;;-142.21;93.95;112049.66;5113512;28;20224;-77
2022/07/13 04:50:00;;;;;;;12.20;4.63;;;21.20;66.20;;;-142.21;95.33;112049.66;5096125;28;20306;-78
2022/07/13 04:52:27;;;;;;;5.30;2.50;;;21.30;67.20;;;-142.21;94.39;112049.66;5097815;28;20438;-77
2022/07/13 04:54:54;;;;;;;4.27;2.20;;;21.30;66.60;;;-142.21;94.16;112049.66;5114592;28;20731;-78
2022/07/13 04:57:21;;;;;;;5.03;2.37;;;21.40;66.40;;;-142.21;94.15;112049.66;5113852;28;20279;-78
2022/07/13 04:59:48;;;;;;;7.20;3.00;;;21.30;66.30;;;-142.21;95.14;112049.66;5114587;28;20196;-78
2022/07/13 05:02:15;;;;;;;8.50;3.00;;;21.40;66.90;;;-142.21;95.67;112049.66;5114069;28;20621;-77
2022/07/13 05:04:43;;;;;;;2.73;2.13;;;21.40;67.30;;;-142.21;94.69;112049.66;5111685;28;20670;-77
2022/07/13 05:07:11;;;;;;;1.73;1.63;;;21.40;66.90;;;-142.21;93.58;112049.66;5113606;28;20219;-76
2022/07/13 05:09:38;;;;;;;1.67;1.53;;;21.50;66.20;;;-142.21;94.03;112049.66;5113104;28;20248;-76
2022/07/13 05:12:06;;;;;;;1.83;1.43;;;21.50;66.40;;;-142.21;91.77;112049.66;5094944;28;20204;-75
2022/07/13 05:14:35;;;;;;;1.33;1.30;;;21.60;65.20;;;-142.21;91.14;112049.66;5113993;28;20202;-75
2022/07/13 05:17:02;;;;;;;2.10;1.57;;;21.60;64.70;;;-142.21;90.40;112049.66;5113117;28;20203;-76
2022/07/13 05:19:30;;;;;;;1.60;1.50;;;21.70;64.30;;;-142.21;89.41;112049.66;5111261;28;20208;-78
2022/07/13 05:21:57;;;;;;;2.93;1.60;;;21.80;64.00;;;-142.21;90.47;112049.66;5111713;28;20298;-76
2022/07/13 05:24:28;;;;;;;2.77;1.83;;;21.90;64.20;;;-142.21;91.06;112049.66;5114434;28;20672;-77
2022/07/13 05:26:58;;;;;;;1.90;1.73;;;21.90;64.20;;;-142.21;91.69;112049.66;5077493;28;20220;-76
2022/07/13 05:29:26;;;;;;;1.80;1.70;;;22.00;64.60;;;-142.21;92.41;112049.66;5096233;28;20286;-76
2022/07/13 05:31:53;;;;;;;2.50;1.67;;;22.10;64.80;;;-142.21;93.25;112049.66;5112776;28;20261;-74
2022/07/13 05:34:21;;;;;;;3.00;1.63;;;22.20;65.50;;;-142.21;93.20;112049.66;5111510;28;20200;-77
2022/07/13 05:36:48;;;;;;;1.80;1.67;;;22.20;65.50;;;-142.21;91.61;112049.66;5111896;28;20294;-73
2022/07/13 05:39:15;;;;;;;1.90;1.80;;;22.30;65.40;;;-142.21;91.81;112049.66;5113562;28;20231;-74
2022/07/13 05:41:43;;;;;;;1.43;1.30;;;22.40;64.70;;;-142.21;90.02;112049.66;5112845;28;20290;-73
2022/07/13 05:44:10;;;;;;;2.33;1.63;;;22.50;64.10;;;-142.21;90.03;112049.66;5113493;28;20218;-73
2022/07/13 05:46:38;;;;;;;2.87;1.60;;;22.60;63.90;;;-142.21;87.02;112049.66;5111710;28;20233;-73
2022/07/13 05:49:05;;;;;;;2.13;1.60;;;22.60;62.50;;;-142.21;86.08;112049.66;5111007;28;20637;-73
2022/07/13 05:51:32;;;;;;;1.97;1.47;;;22.70;61.80;;;-142.21;88.23;112049.66;5112767;28;20294;-73
2022/07/13 05:53:59;;;;;;;1.50;1.40;;;22.80;62.60;;;-142.21;87.96;112049.66;5112139;28;20649;-73
2022/07/13 05:56:26;;;;;;;2.07;1.57;;;22.90;62.60;;;-142.21;89.62;112049.66;5113098;28;20211;-73
2022/07/13 05:58:55;;;;;;;1.80;1.43;;;23.00;63.30;;;-142.21;90.48;112049.66;5110815;28;20295;-73
2022/07/13 06:01:22;;;;;;;2.00;1.47;;;23.00;63.90;;;-142.21;91.15;112049.66;5112909;28;20200;-72
2022/07/13 06:03:49;;;;;;;1.27;1.17;;;23.10;64.10;;;-142.21;89.85;112049.66;5110687;28;20238;-73
2022/07/13 06:06:16;;;;;;;1.37;1.20;;;23.10;63.60;;;-142.21;88.29;112049.66;5112511;28;20294;-72
2022/07/13 06:08:43;;;;;;;1.20;1.03;;;23.20;62.80;;;-142.21;87.38;112049.66;5093670;28;20230;-75
2022/07/13 06:11:10;;;;;;;1.00;1.00;;;23.30;62.20;;;-142.21;87.34;112049.66;5107350;28;20629;-74
2022/07/13 06:13:37;;;;;;;1.73;1.33;;;23.30;62.00;;;-142.21;86.90;112049.66;5110664;28;20198;-74
2022/07/13 06:16:07;;;;;;;1.57;1.43;;;23.40;61.90;;;-142.21;85.83;112049.66;5110685;28;20318;-74
2022/07/13 06:18:35;;;;;;;3.70;1.60;;;23.50;61.30;;;-142.21;82.71;112049.66;5113070;28;20200;-74
2022/07/13 06:21:02;;;;;;;2.33;1.93;;;23.60;60.30;;;-142.21;81.64;112049.66;5111750;28;20218;-74
2022/07/13 06:23:29;;;;;;;3.00;1.80;;;23.60;59.50;;;-142.21;81.38;112049.66;5112928;28;20212;-74
2022/07/13 06:25:57;;;;;;;2.97;1.23;;;23.70;59.40;;;-142.21;83.13;112049.66;5109677;28;20221;-74
2022/07/13 06:28:24;;;;;;;2.10;1.40;;;23.80;59.80;;;-142.21;77.52;112049.66;5106987;28;20230;-74
2022/07/13 06:30:51;;;;;;;4.77;1.50;;;23.90;58.40;;;-142.21;74.54;112049.66;5111057;28;20230;-67
2022/07/13 06:33:20;;;;;;;1.83;1.20;;;23.90;57.40;;;-142.21;74.43;112049.66;5112424;28;20253;-71
2022/07/13 06:35:47;;;;;;;2.03;1.50;;;24.00;57.20;;;-142.21;74.09;112049.66;5112431;28;20298;-69
2022/07/13 06:38:15;;;;;;;1.37;1.27;;;24.10;57.00;;;-142.21;73.51;112049.66;5110866;28;20214;-69
2022/07/13 06:40:42;;;;;;;1.33;1.07;;;24.20;56.80;;;-142.21;73.33;112049.66;5111356;28;20207;-74
2022/07/13 06:43:10;;;;;;;1.37;1.03;;;24.30;56.80;;;-142.21;74.91;112049.66;5109720;28;20288;-72
2022/07/13 06:45:37;;;;;;;3.23;1.30;;;24.40;57.20;;;-142.21;76.54;112049.66;5109648;28;20286;-72
2022/07/13 06:48:04;;;;;;;2.67;1.30;;;24.60;57.50;;;-142.21;69.74;112049.66;5111273;28;20285;-72
2022/07/13 06:50:33;;;;;;;1.50;1.40;;;24.60;56.10;;;-142.21;71.31;112049.66;5112744;28;20216;-72
2022/07/13 06:53:00;;;;;;;1.13;1.00;;;24.70;56.80;;;-142.21;70.03;112049.66;5111351;28;20204;-73
2022/07/13 06:55:27;;;;;;;3.17;1.20;;;24.90;56.50;;;-142.21;69.13;112049.66;5110905;28;20310;-73
2022/07/13 06:57:55;;;;;;;1.60;1.27;;;25.00;55.60;;;-142.21;68.50;112049.66;5111869;28;20295;-73
2022/07/13 07:00:22;;;;;;;1.93;1.47;;;25.10;55.50;;;-142.21;67.54;112049.66;5111314;28;20208;-73
2022/07/13 07:02:49;;;;;;;1.60;1.50;;;25.20;55.20;;;-142.21;68.21;112049.66;5109796;28;20207;-74
2022/07/13 07:05:16;;;;;;;1.27;1.17;;;25.30;55.20;;;-142.21;67.10;112049.66;5108309;28;20335;-74
2022/07/13 07:07:45;;;;;;;2.00;1.17;;;25.40;55.00;;;-142.21;64.09;112049.66;5111194;28;20314;-74
2022/07/13 07:10:14;;;;;;;1.53;1.43;;;25.50;54.30;;;-142.21;65.28;112049.66;5112061;28;20322;-75
2022/07/13 07:12:42;;;;;;;2.30;1.40;;;25.50;54.40;;;-142.21;67.14;112049.66;5112980;28;20606;-73
2022/07/13 07:15:11;;;;;;;3.80;1.60;;;25.70;54.70;;;-142.21;71.80;112049.66;5110278;28;20230;-74
2022/07/13 07:17:45;;;;;;;2.17;1.47;;;25.80;55.60;;;-142.21;70.31;112049.66;5084738;28;20298;-74
2022/07/13 07:20:13;;;;;;;2.50;1.57;;;25.90;55.30;;;-142.21;72.73;112049.66;5091131;28;20192;-74
2022/07/13 07:22:40;;;;;;;1.23;1.13;;;26.10;56.00;;;-142.21;71.88;112049.66;5094725;28;20645;-74
2022/07/13 07:25:10;;;;;;;1.87;1.33;;;26.20;55.60;;;-142.21;72.04;112049.66;5086699;28;20282;-74
2022/07/13 07:27:40;;;;;;;1.30;1.20;;;26.30;55.50;;;-142.21;70.07;112049.66;5111939;28;20644;-75
2022/07/13 07:30:09;;;;;;;1.50;1.40;;;26.40;55.00;;;-142.21;66.31;112049.66;5104408;28;20201;-75
2022/07/13 07:32:36;;;;;;;1.30;1.20;;;26.50;53.90;;;-142.21;66.88;112049.66;5106806;28;20206;-75
2022/07/13 07:35:04;;;;;;;2.60;1.10;;;26.60;53.80;;;-142.21;63.70;112049.66;5107616;28;20199;-76
2022/07/13 07:37:31;;;;;;;1.33;1.23;;;26.70;53.60;;;-142.21;59.61;112049.66;5113165;28;20246;-75
2022/07/13 07:39:58;;;;;;;1.37;1.20;;;26.70;52.30;;;-142.21;59.32;112049.66;5114361;28;20295;-77
2022/07/13 07:42:29;;;;;;;1.27;1.17;;;26.70;52.00;;;-142.21;59.04;112049.66;5108658;28;20265;-74
2022/07/13 07:44:56;;;;;;;1.30;1.20;;;26.80;51.90;;;-142.21;58.41;112049.66;5108704;28;20196;-74
2022/07/13 07:47:25;;;;;;;0.93;0.93;;;26.90;51.90;;;-142.21;57.38;112049.66;5088367;28;20235;-73
2022/07/13 07:49:53;;;;;;;1.07;1.07;;;27.00;51.50;;;-142.21;57.82;112049.66;5115165;28;20235;-75
2022/07/13 07:52:22;;;;;;;1.57;1.20;;;27.10;51.40;;;-142.21;60.46;112049.66;5097789;28;20243;-75
2022/07/13 07:54:49;;;;;;;1.10;1.00;;;27.20;51.90;;;-142.21;64.04;112049.66;5113983;28;20283;-74
2022/07/13 07:57:17;;;;;;;2.63;1.50;;;27.20;52.90;;;-142.21;59.98;112049.66;5114296;28;20227;-76
2022/07/13 07:59:45;;;;;;;2.10;1.60;;;27.40;51.80;;;-142.21;59.71;112049.66;5112368;28;20264;-75
2022/07/13 08:02:13;;;;;;;1.10;1.03;;;27.40;51.70;;;-142.21;58.26;112049.66;5114516;28;21321;-75
2022/07/13 08:04:40;;;;;;;1.20;1.10;;;27.40;51.20;;;-142.21;55.05;112049.66;5114408;28;20207;-74
2022/07/13 08:07:08;;;;;;;1.50;1.33;;;27.40;50.40;;;-142.21;55.90;112049.66;5114829;28;20203;-74
2022/07/13 08:09:36;;;;;;;1.63;1.27;;;27.50;50.70;;;-142.21;57.35;112049.66;5113567;28;20231;-75
2022/07/13 08:12:04;;;;;;;1.30;1.20;;;27.60;51.00;;;-142.21;59.44;112049.66;5114165;28;20246;-75
2022/07/13 08:14:31;;;;;;;1.20;1.20;;;27.60;51.60;;;-142.21;60.29;112049.66;5115313;28;20200;-75
2022/07/13 08:17:00;;;;;;;1.57;1.20;;;27.70;51.60;;;-142.21;57.22;112049.66;5114444;28;20205;-75
2022/07/13 08:19:27;;;;;;;1.10;1.10;;;27.80;51.00;;;-142.21;59.24;112049.66;5114166;28;20243;-75
2022/07/13 08:21:54;;;;;;;1.30;1.20;;;27.90;51.30;;;-142.21;54.30;112049.66;5113262;27;20208;-75
2022/07/13 08:24:21;;;;;;;1.27;1.17;;;28.00;50.20;;;-142.21;51.22;112049.66;5113391;28;20288;-75
2022/07/13 08:26:52;;;;;;;2.27;1.30;;;28.00;49.60;;;-142.21;50.90;112049.66;5112490;28;20202;-75
2022/07/13 08:29:19;;;;;;;2.40;1.30;;;28.10;49.60;;;-142.21;49.79;112049.66;5093931;28;20205;-75
2022/07/13 08:31:46;;;;;;;2.77;1.37;;;28.10;49.70;;;-142.21;52.81;112049.66;5109114;28;20205;-75
2022/07/13 08:39:44;;;;;;;2.90;1.40;;;28.40;48.50;;;-142.21;46.95;112049.66;5103896;28;20255;-75
2022/07/13 08:42:14;;;;;;;3.70;1.37;;;28.40;47.70;;;-142.21;47.24;112049.66;5112866;28;20605;-75
2022/07/13 08:44:41;;;;;;;1.80;1.00;;;28.50;47.60;;;-142.21;47.57;112049.66;5111139;28;20210;-75
2022/07/13 08:47:11;;;;;;;1.33;1.10;;;28.60;47.90;;;-142.21;47.41;112049.66;5111889;28;20242;-75
2022/07/13 08:49:40;;;;;;;2.60;1.30;;;28.70;47.80;;;-142.21;43.99;112049.66;5110878;28;20201;-75
2022/07/13 08:52:08;;;;;;;1.17;1.07;;;28.80;46.50;;;-142.21;41.85;112049.66;5107297;28;20201;-74
2022/07/13 08:54:35;;;;;;;2.20;1.10;;;28.80;45.40;;;-142.21;44.31;112049.66;5110943;28;20662;-74
2022/07/13 08:57:02;;;;;;;2.00;1.50;;;28.90;46.30;;;-142.21;43.12;112049.66;5114058;28;20208;-74
2022/07/13 08:59:30;;;;;;;1.47;1.37;;;29.10;46.10;;;-142.21;42.96;112049.66;5110045;28;20297;-75
2022/07/13 09:05:48;;;;;;;1.77;1.40;;;29.40;45.30;;;-142.21;42.53;112049.66;5108554;28;20297;-75
2022/07/13 09:08:16;;;;;;;1.70;1.30;;;29.50;44.80;;;-142.21;42.44;112049.66;5112027;28;20312;-74
2022/07/13 09:10:54;;;;;;;2.40;1.40;;;29.50;45.30;;;-142.21;42.55;112049.66;5112964;28;20235;-75
2022/07/13 09:13:39;;;;;;;2.90;1.43;;;29.60;44.70;;;-142.21;41.48;112049.66;5092503;28;20255;-72
2022/07/13 09:16:16;;;;;;;1.70;1.17;;;29.70;44.30;;;-142.21;38.95;112049.66;5093938;28;20202;-76
2022/07/13 09:18:44;;;;;;;2.27;1.13;;;29.70;42.60;;;-142.21;39.22;112049.66;5113590;28;20189;-73
2022/07/13 09:21:13;;;;;;;2.63;1.70;;;29.80;44.10;;;-142.21;39.57;112049.66;5104007;28;20323;-73
2022/07/13 09:23:41;;;;;;;1.27;1.17;;;30.00;43.50;;;-142.21;39.82;112049.66;5104420;28;20257;-73
2022/07/13 09:26:09;;;;;;;1.83;1.40;;;30.10;43.60;;;-142.21;38.49;112049.66;5108331;28;20227;-73
2022/07/13 09:28:44;;;;;;;1.60;1.50;;;30.20;42.50;;;-142.21;40.52;112049.66;5112838;28;20356;-75
2022/07/13 09:31:12;;;;;;;1.70;1.43;;;30.20;43.80;;;-142.21;38.42;112049.66;5109917;28;20217;-78
2022/07/13 09:33:43;;;;;;;2.33;1.40;;;30.30;43.00;;;-142.21;38.69;112049.66;5095391;28;20210;-77
2022/07/13 09:36:14;;;;;;;2.43;1.40;;;30.40;42.70;;;-142.21;39.73;112049.66;5106808;28;20291;-74
2022/07/13 09:38:42;;;;;;;1.37;1.07;;;30.50;43.50;;;-142.21;40.30;112049.66;5109330;28;20219;-72
2022/07/13 09:41:20;;;;;;;3.37;1.80;;;30.60;43.50;;;-142.21;40.46;112049.66;5110939;28;20223;-73
2022/07/13 09:46:55;;;;;;;2.07;1.60;;;31.00;42.70;;;-142.21;40.37;112049.66;5112265;28;20211;-73
2022/07/13 09:49:40;;;;;;;2.33;1.23;;;31.20;43.90;;;-142.21;38.76;112049.66;5110095;28;20299;-72
2022/07/13 09:52:11;;;;;;;2.50;1.30;;;31.40;41.40;;;-142.21;37.03;112049.66;5101696;28;20683;-72
2022/07/13 09:54:40;;;;;;;1.40;1.30;;;31.50;41.10;;;-142.21;35.07;112049.66;5110086;28;20223;-71
2022/07/13 09:57:10;;;;;;;1.47;1.37;;;31.60;40.00;;;-142.21;36.17;112049.66;5109734;28;20559;-73
2022/07/13 09:59:38;;;;;;;1.33;1.13;;;31.60;40.60;;;-142.21;37.11;112049.66;5112783;28;20290;-71
2022/07/13 10:02:07;;;;;;;1.40;1.30;;;31.70;40.70;;;-142.21;36.49;112049.66;5112690;28;20204;-71
2022/07/13 10:04:35;;;;;;;1.47;1.10;;;31.80;40.20;;;-142.21;37.89;112049.66;5112039;28;20232;-73
2022/07/13 10:07:04;;;;;;;2.23;1.20;;;31.90;40.90;;;-142.21;38.55;112049.66;5111281;28;20206;-74
2022/07/13 10:09:39;;;;;;;2.07;1.00;;;32.00;41.30;;;-142.21;37.26;112049.66;5110384;28;20238;-73
2022/07/13 10:12:08;;;;;;;1.83;1.13;;;32.10;40.10;;;-142.21;34.34;112049.66;5104372;28;20290;-74
2022/07/13 10:14:36;;;;;;;2.07;1.20;;;32.10;38.40;;;-142.21;34.73;112049.66;5098140;28;20255;-74
2022/07/13 10:17:10;;;;;;;2.07;1.20;;;32.10;39.20;;;-142.21;33.89;112049.66;5090949;28;20227;-73